Kezdőlap
METAR-TAF:

METAR-TAF

Repülőterek :

Debreceni nemzetközi repülőtér

Debrecen, Magyarország

földrajzi szélesség: 47-29N, földrajzi hosszúság: 021-36E, magasság: 108 m

Jelenlegi meteorológiai megfigyelések

A jelentés 48 perccel ezelõtt készült, 21:15 UTC
Észak-északkeleti szél 1 kt
Hőmérséklet 0°C
Páratartalom 86%
Légköri nyomás 1019 hPa
Látótávolság 10 km, vagy több
felhőtlen 1500 m magasságban, és nincs gomolyfelhõ

METAR: LHDC 182115Z 02001KT CAVOK M00/M02 Q1019 NOSIG

Idő: 23:03 (22:03 UTC)

Előrejelzés

A jelentés 1 órával és 48 perccel ezelõtt készült, 20:15 UTC
Az előrejelzés 18-én 21 óra UTC és 19-én 06 óra UTC között érvényes
Észak-északkeleti szél 8 kt
Látótávolság 10 km, vagy több
Szakadozott felhőzet 4000 lábon
18-én 21 óra UTC és 18-én 23 óra UTC között fokozatosan kialakuló
Látótávolság 10 km, vagy több
felhőtlen 1500 m magasságban, és nincs gomolyfelhõ

TAF: LHDC 182015Z 1821/1906 03008KT 9999 BKN040 BECMG 1821/1823 CAVOK

Meteorológiai megfigyelések és előrejelzések több, mint 4000 repülőtéren (METAR és TAF jelentéseket).

A térképen piros és sárga pontok jelzik az elérhető meteorológiai állomásokat.

Mozgassa az egeret a pont fölött, hogy megjelenjen az állomás neve.

Azután kattintson az időjárási megfigyelések és előrejelzések megtekintéséhez.

A térkép megváltoztatása: kattintson a fekete keresztel jelölt zöld gombra ráközelítéshez, a vonallal jelölt zöld gombra távolításhoz, vagy a zöld nyilakra a szomszédos térképek eléréséhez.


METAR-TAF: